Time;durP1;ratioP1;P1;durP2;ratioP2;P2;SDS_P1;SDS_P2;PMS_P1;PMS_P2;Temp;Humidity;BMP_temperature;BMP_pressure;BME280_temperature;BME280_humidity;BME280_pressure;Samples;Min_cycle;Max_cycle;Signal;HPM_P1;HPM_P2
2023/07/16 00:00:15;;;;;;;1.80;1.70;;;;;;;;;;5055108;28;20376;-30
2023/07/16 00:02:41;;;;;;;1.30;1.20;;;;;;;;;;5054942;28;20413;-28
2023/07/16 00:05:07;;;;;;;1.67;1.58;;;;;;;;;;5054609;28;20069;-29
2023/07/16 00:07:33;;;;;;;1.83;1.73;;;;;;;;;;5054622;28;20029;-31
2023/07/16 00:09:59;;;;;;;1.60;1.35;;;;;;;;;;5037064;28;20067;-33
2023/07/16 00:12:26;;;;;;;1.80;1.60;;;;;;;;;;5055125;28;20036;-29
2023/07/16 00:14:52;;;;;;;1.45;1.35;;;;;;;;;;5054587;28;20116;-26
2023/07/16 00:17:18;;;;;;;1.38;1.27;;;;;;;;;;5054590;28;20108;-27
2023/07/16 00:19:44;;;;;;;2.92;1.88;;;;;;;;;;5054812;28;20056;-30
2023/07/16 00:22:10;;;;;;;1.50;1.40;;;;;;;;;;5054688;28;20071;-30
2023/07/16 00:24:36;;;;;;;1.70;1.60;;;;;;;;;;5054730;28;20044;-31
2023/07/16 00:27:03;;;;;;;1.35;1.35;;;;;;;;;;5054373;28;20025;-32
2023/07/16 00:29:29;;;;;;;1.70;1.60;;;;;;;;;;5036919;28;20081;-30
2023/07/16 00:31:55;;;;;;;1.60;1.50;;;;;;;;;;5054652;28;20020;-28
2023/07/16 00:34:22;;;;;;;1.58;1.48;;;;;;;;;;5054913;28;20513;-31
2023/07/16 00:36:48;;;;;;;1.95;1.85;;;;;;;;;;5054651;28;20056;-27
2023/07/16 00:39:14;;;;;;;2.13;1.42;;;;;;;;;;5054371;28;20422;-32
2023/07/16 00:41:40;;;;;;;1.30;1.20;;;;;;;;;;5054358;28;20029;-30
2023/07/16 00:44:06;;;;;;;1.40;1.30;;;;;;;;;;5054254;28;20049;-30
2023/07/16 00:46:32;;;;;;;1.45;1.35;;;;;;;;;;5054452;28;20406;-31
2023/07/16 00:48:58;;;;;;;1.60;1.52;;;;;;;;;;5054521;28;20017;-27
2023/07/16 00:51:25;;;;;;;1.65;1.55;;;;;;;;;;5054247;28;20017;-29
2023/07/16 00:53:51;;;;;;;1.20;1.20;;;;;;;;;;5054151;28;20025;-28
2023/07/16 00:56:18;;;;;;;1.60;1.50;;;;;;;;;;5054175;28;20388;-31
2023/07/16 00:58:44;;;;;;;1.80;1.70;;;;;;;;;;5054424;28;20105;-29
2023/07/16 01:01:10;;;;;;;1.60;1.50;;;;;;;;;;5036626;28;20044;-30
2023/07/16 01:03:36;;;;;;;1.50;1.40;;;;;;;;;;5055058;28;20106;-30
2023/07/16 01:06:15;;;;;;;1.63;1.50;;;;;;;;;;5058015;28;20119;-30
2023/07/16 01:08:57;;;;;;;1.48;1.38;;;;;;;;;;5057998;28;20017;-32
2023/07/16 01:11:24;;;;;;;1.63;1.52;;;;;;;;;;5058573;28;20108;-29
2023/07/16 01:13:50;;;;;;;2.03;1.92;;;;;;;;;;5058108;28;20035;-28
2023/07/16 01:16:20;;;;;;;1.50;1.50;;;;;;;;;;5058086;28;20035;-30
2023/07/16 01:18:46;;;;;;;1.23;1.23;;;;;;;;;;5058101;28;20025;-31
2023/07/16 01:21:13;;;;;;;1.42;1.33;;;;;;;;;;5057710;28;20270;-29
2023/07/16 01:24:05;;;;;;;1.63;1.50;;;;;;;;;;5058141;28;20044;-29
2023/07/16 01:26:50;;;;;;;1.38;1.38;;;;;;;;;;5057932;28;20052;-30
2023/07/16 01:29:19;;;;;;;1.70;1.60;;;;;;;;;;5057591;28;20032;-30
2023/07/16 01:31:46;;;;;;;1.42;1.33;;;;;;;;;;5057520;28;20053;-31
2023/07/16 01:34:13;;;;;;;1.88;1.50;;;;;;;;;;5058073;28;20025;-30
2023/07/16 01:36:40;;;;;;;2.03;1.42;;;;;;;;;;5039906;28;20531;-31
2023/07/16 01:39:06;;;;;;;1.70;1.60;;;;;;;;;;5057703;28;20071;-30
2023/07/16 01:41:32;;;;;;;1.42;1.33;;;;;;;;;;5057613;28;20098;-27
2023/07/16 01:43:58;;;;;;;1.40;1.30;;;;;;;;;;5057239;28;20029;-30
2023/07/16 01:46:25;;;;;;;1.27;1.20;;;;;;;;;;5057250;28;20021;-29
2023/07/16 01:48:51;;;;;;;1.50;1.40;;;;;;;;;;5057235;28;20021;-29
2023/07/16 01:51:17;;;;;;;1.48;1.38;;;;;;;;;;5057236;28;20036;-29
2023/07/16 01:53:43;;;;;;;1.67;1.48;;;;;;;;;;5057136;28;20017;-29
2023/07/16 01:56:09;;;;;;;1.52;1.50;;;;;;;;;;5040233;28;20341;-32
2023/07/16 01:58:35;;;;;;;1.52;1.48;;;;;;;;;;5057022;28;20021;-32
2023/07/16 02:01:01;;;;;;;0.93;0.93;;;;;;;;;;5057035;28;20036;-27
2023/07/16 02:03:27;;;;;;;1.33;1.23;;;;;;;;;;5056913;28;20456;-31
2023/07/16 02:05:53;;;;;;;1.65;1.55;;;;;;;;;;5057150;28;20033;-30
2023/07/16 02:08:20;;;;;;;1.52;1.50;;;;;;;;;;5057136;28;20017;-29
2023/07/16 02:10:48;;;;;;;1.92;1.80;;;;;;;;;;5056810;28;20108;-26
2023/07/16 02:13:14;;;;;;;1.50;1.40;;;;;;;;;;5056665;28;20032;-30
2023/07/16 02:15:40;;;;;;;1.73;1.63;;;;;;;;;;5056152;28;20072;-29
2023/07/16 02:18:06;;;;;;;1.38;1.20;;;;;;;;;;5057236;28;20027;-29
2023/07/16 02:20:33;;;;;;;1.42;1.33;;;;;;;;;;5057139;28;20451;-30
2023/07/16 02:22:59;;;;;;;1.48;1.38;;;;;;;;;;5056535;28;20040;-30
2023/07/16 02:25:25;;;;;;;1.50;1.40;;;;;;;;;;5056782;28;20017;-27
2023/07/16 02:27:51;;;;;;;1.45;1.40;;;;;;;;;;5056496;28;20124;-31
2023/07/16 02:30:17;;;;;;;1.40;1.33;;;;;;;;;;5056733;28;20352;-26
2023/07/16 02:32:44;;;;;;;1.48;1.38;;;;;;;;;;5056502;28;20104;-26
2023/07/16 02:35:11;;;;;;;1.70;1.60;;;;;;;;;;5056368;28;20036;-30
2023/07/16 02:37:37;;;;;;;3.22;1.75;;;;;;;;;;5056876;28;20025;-30
2023/07/16 02:40:03;;;;;;;1.60;1.50;;;;;;;;;;5056553;28;20021;-28
2023/07/16 02:42:30;;;;;;;2.15;1.45;;;;;;;;;;5056396;28;20021;-30
2023/07/16 02:44:56;;;;;;;1.50;1.40;;;;;;;;;;5056463;28;20122;-32
2023/07/16 02:47:22;;;;;;;1.52;1.42;;;;;;;;;;5056059;28;20043;-27
2023/07/16 02:49:51;;;;;;;2.28;1.20;;;;;;;;;;5056373;28;20047;-30
2023/07/16 02:52:17;;;;;;;1.52;1.42;;;;;;;;;;5056568;28;20037;-30
2023/07/16 02:54:43;;;;;;;1.50;1.40;;;;;;;;;;5056215;28;20031;-28
2023/07/16 02:57:09;;;;;;;1.45;1.17;;;;;;;;;;5038370;28;20036;-27
2023/07/16 02:59:35;;;;;;;1.27;1.17;;;;;;;;;;5055885;28;20032;-31
2023/07/16 03:02:01;;;;;;;1.80;1.70;;;;;;;;;;5038308;28;20053;-29
2023/07/16 03:04:27;;;;;;;1.48;1.30;;;;;;;;;;5055619;28;20045;-30
2023/07/16 03:06:53;;;;;;;1.48;1.38;;;;;;;;;;5055689;28;20456;-30
2023/07/16 03:09:20;;;;;;;1.55;1.45;;;;;;;;;;5056000;28;20021;-32
2023/07/16 03:11:46;;;;;;;1.23;1.13;;;;;;;;;;5055822;28;20032;-28
2023/07/16 03:14:12;;;;;;;1.92;1.83;;;;;;;;;;5055596;28;20404;-27
2023/07/16 03:16:38;;;;;;;1.60;1.50;;;;;;;;;;5055597;28;20021;-30
2023/07/16 03:19:04;;;;;;;1.20;1.20;;;;;;;;;;5055557;28;20345;-30
2023/07/16 03:21:30;;;;;;;2.53;1.80;;;;;;;;;;5055498;28;20122;-31
2023/07/16 03:23:56;;;;;;;1.20;1.20;;;;;;;;;;5055664;28;20166;-30
2023/07/16 03:26:23;;;;;;;1.73;1.63;;;;;;;;;;5055125;28;20035;-28
2023/07/16 03:28:49;;;;;;;1.60;1.50;;;;;;;;;;5055357;28;20028;-31
2023/07/16 03:31:15;;;;;;;1.27;1.17;;;;;;;;;;5055554;28;20016;-27
2023/07/16 03:33:41;;;;;;;1.58;1.48;;;;;;;;;;5037610;28;20021;-27
2023/07/16 03:36:07;;;;;;;1.35;1.30;;;;;;;;;;5055208;28;20048;-31
2023/07/16 03:38:33;;;;;;;1.75;1.48;;;;;;;;;;5037609;28;20035;-26
2023/07/16 03:41:00;;;;;;;1.30;1.17;;;;;;;;;;5055122;28;20025;-30
2023/07/16 03:43:26;;;;;;;1.70;1.58;;;;;;;;;;5054970;28;20095;-27
2023/07/16 03:45:52;;;;;;;1.50;1.40;;;;;;;;;;5037413;28;20041;-25
2023/07/16 03:48:18;;;;;;;1.48;1.38;;;;;;;;;;5055282;28;20023;-30
2023/07/16 03:50:44;;;;;;;1.27;1.20;;;;;;;;;;5037386;28;20501;-32
2023/07/16 03:53:10;;;;;;;1.55;1.30;;;;;;;;;;5054856;28;20444;-31
2023/07/16 03:55:36;;;;;;;1.30;1.30;;;;;;;;;;5055159;28;20443;-31
2023/07/16 03:58:02;;;;;;;1.10;1.10;;;;;;;;;;5037309;28;20537;-27
2023/07/16 04:00:29;;;;;;;1.42;1.30;;;;;;;;;;5055058;28;20032;-31
2023/07/16 04:02:55;;;;;;;1.58;1.48;;;;;;;;;;5037003;28;20028;-27
2023/07/16 04:05:21;;;;;;;1.33;1.30;;;;;;;;;;5054704;28;20056;-29
2023/07/16 04:07:47;;;;;;;1.90;1.15;;;;;;;;;;5054857;28;20120;-30
2023/07/16 04:10:13;;;;;;;1.30;1.20;;;;;;;;;;5054670;28;20028;-32
2023/07/16 04:12:39;;;;;;;1.50;1.40;;;;;;;;;;5054573;28;20056;-30
2023/07/16 04:15:08;;;;;;;1.42;1.33;;;;;;;;;;5054622;28;20021;-29
2023/07/16 04:17:34;;;;;;;1.58;1.48;;;;;;;;;;5037021;28;20119;-29
2023/07/16 04:20:00;;;;;;;1.40;1.30;;;;;;;;;;5054541;28;20384;-27
2023/07/16 04:22:27;;;;;;;2.03;1.65;;;;;;;;;;5054451;28;20029;-30
2023/07/16 04:24:53;;;;;;;1.77;1.67;;;;;;;;;;5054764;28;20444;-26
2023/07/16 04:27:19;;;;;;;1.67;1.58;;;;;;;;;;5054327;28;20044;-29
2023/07/16 04:29:45;;;;;;;1.75;1.65;;;;;;;;;;5054696;28;20091;-28
2023/07/16 04:32:11;;;;;;;1.40;1.30;;;;;;;;;;5054301;28;20479;-27
2023/07/16 04:34:38;;;;;;;1.88;1.77;;;;;;;;;;5054384;28;20028;-31
2023/07/16 04:37:04;;;;;;;1.98;1.52;;;;;;;;;;5054379;28;20036;-31
2023/07/16 04:39:30;;;;;;;1.40;1.30;;;;;;;;;;5057121;28;20025;-26
2023/07/16 04:41:56;;;;;;;2.45;1.48;;;;;;;;;;5058351;28;20037;-30
2023/07/16 04:44:22;;;;;;;1.45;1.35;;;;;;;;;;5058506;28;20416;-30
2023/07/16 04:46:48;;;;;;;2.03;1.83;;;;;;;;;;5058594;28;20352;-27
2023/07/16 04:49:14;;;;;;;1.73;1.63;;;;;;;;;;5058697;28;20055;-26
2023/07/16 04:51:40;;;;;;;4.60;2.65;;;;;;;;;;5058565;28;20102;-31
2023/07/16 04:54:07;;;;;;;2.97;2.63;;;;;;;;;;5058235;28;20017;-32
2023/07/16 04:56:33;;;;;;;2.10;2.00;;;;;;;;;;5058503;28;20040;-30
2023/07/16 04:58:59;;;;;;;1.50;1.40;;;;;;;;;;5058215;28;20064;-29
2023/07/16 05:01:26;;;;;;;1.65;1.55;;;;;;;;;;5058169;28;20048;-31
2023/07/16 05:03:53;;;;;;;1.80;1.70;;;;;;;;;;5057764;28;20080;-29
2023/07/16 05:06:19;;;;;;;1.85;1.63;;;;;;;;;;5058279;28;20033;-28
2023/07/16 05:08:45;;;;;;;2.05;1.67;;;;;;;;;;5058561;28;20028;-25
2023/07/16 05:11:11;;;;;;;1.85;1.75;;;;;;;;;;5058001;28;20078;-30
2023/07/16 05:13:37;;;;;;;1.90;1.80;;;;;;;;;;5057799;28;20017;-30
2023/07/16 05:16:03;;;;;;;3.80;1.60;;;;;;;;;;5057806;28;20036;-32
2023/07/16 05:18:29;;;;;;;3.03;1.50;;;;;;;;;;5057847;28;20029;-31
2023/07/16 05:20:56;;;;;;;2.03;1.67;;;;;;;;;;5058030;28;20029;-29
2023/07/16 05:23:22;;;;;;;1.45;1.33;;;;;;;;;;5057890;28;20158;-29
2023/07/16 05:25:48;;;;;;;1.50;1.40;;;;;;;;;;5057930;28;20090;-29
2023/07/16 05:28:15;;;;;;;2.22;2.13;;;;;;;;;;5057641;28;20449;-30
2023/07/16 05:30:41;;;;;;;2.83;1.50;;;;;;;;;;5057596;28;20043;-27
2023/07/16 05:33:07;;;;;;;1.60;1.50;;;;;;;;;;5057828;28;20318;-31
2023/07/16 05:35:33;;;;;;;2.17;1.85;;;;;;;;;;5057769;28;20028;-28
2023/07/16 05:38:00;;;;;;;2.05;1.90;;;;;;;;;;5057465;28;20459;-29
2023/07/16 05:40:26;;;;;;;2.45;1.92;;;;;;;;;;5057429;28;20072;-29
2023/07/16 05:42:52;;;;;;;2.13;1.98;;;;;;;;;;5039728;28;20024;-30
2023/07/16 05:45:18;;;;;;;2.03;1.73;;;;;;;;;;5057598;28;20021;-29
2023/07/16 05:47:44;;;;;;;1.65;1.55;;;;;;;;;;5039670;28;20475;-31
2023/07/16 05:50:10;;;;;;;2.33;1.75;;;;;;;;;;5057166;28;20056;-30
2023/07/16 05:52:36;;;;;;;1.35;1.25;;;;;;;;;;5057129;28;20021;-29
2023/07/16 05:55:03;;;;;;;2.25;2.05;;;;;;;;;;5039566;28;20491;-28
2023/07/16 05:57:29;;;;;;;2.17;1.90;;;;;;;;;;5057111;28;20040;-26
2023/07/16 05:59:55;;;;;;;1.77;1.67;;;;;;;;;;5057322;28;20329;-28
2023/07/16 06:02:21;;;;;;;1.75;1.65;;;;;;;;;;5056954;28;20033;-28
2023/07/16 06:04:47;;;;;;;1.98;1.77;;;;;;;;;;5057165;28;20048;-30
2023/07/16 06:07:13;;;;;;;1.73;1.30;;;;;;;;;;5057069;28;20083;-27
2023/07/16 06:09:39;;;;;;;2.45;1.50;;;;;;;;;;5057101;28;20083;-31
2023/07/16 06:12:06;;;;;;;1.65;1.33;;;;;;;;;;5056809;28;22182;-29
2023/07/16 06:14:32;;;;;;;4.22;1.70;;;;;;;;;;5057055;28;20040;-28
2023/07/16 06:16:58;;;;;;;1.73;1.60;;;;;;;;;;5056996;28;20033;-29
2023/07/16 06:19:24;;;;;;;1.92;1.83;;;;;;;;;;5056708;28;20063;-30
2023/07/16 06:21:50;;;;;;;2.65;2.08;;;;;;;;;;5056580;28;20025;-27
2023/07/16 06:24:16;;;;;;;2.05;1.95;;;;;;;;;;5057114;28;20103;-30
2023/07/16 06:26:43;;;;;;;2.35;2.25;;;;;;;;;;5056743;28;20033;-30
2023/07/16 06:29:09;;;;;;;2.20;2.05;;;;;;;;;;5056476;28;20028;-32
2023/07/16 06:31:35;;;;;;;2.15;1.95;;;;;;;;;;5056461;28;20028;-27
2023/07/16 06:34:01;;;;;;;2.20;1.77;;;;;;;;;;5056359;28;20028;-32
2023/07/16 06:36:27;;;;;;;1.85;1.75;;;;;;;;;;5038799;28;20025;-28
2023/07/16 06:38:53;;;;;;;1.90;1.80;;;;;;;;;;5056557;28;20036;-27
2023/07/16 06:41:19;;;;;;;1.73;1.63;;;;;;;;;;5056371;28;20021;-26
2023/07/16 06:43:45;;;;;;;2.10;1.98;;;;;;;;;;5056450;28;20442;-27
2023/07/16 06:46:12;;;;;;;2.22;2.13;;;;;;;;;;5056206;28;20079;-30
2023/07/16 06:48:38;;;;;;;1.80;1.65;;;;;;;;;;5056142;28;20029;-30
2023/07/16 06:51:04;;;;;;;1.80;1.70;;;;;;;;;;5056379;28;20025;-31
2023/07/16 06:53:30;;;;;;;2.97;2.10;;;;;;;;;;5056004;28;20087;-30
2023/07/16 06:55:56;;;;;;;2.03;1.92;;;;;;;;;;5056281;28;20075;-28
2023/07/16 06:58:24;;;;;;;2.00;1.80;;;;;;;;;;5055927;28;20463;-31
2023/07/16 07:00:50;;;;;;;2.25;2.05;;;;;;;;;;5055385;28;20440;-29
2023/07/16 07:03:16;;;;;;;2.17;2.00;;;;;;;;;;5055575;28;20168;-31
2023/07/16 07:05:43;;;;;;;2.08;1.90;;;;;;;;;;5056050;28;20017;-29
2023/07/16 07:08:09;;;;;;;2.72;1.88;;;;;;;;;;5038156;28;20036;-30
2023/07/16 07:10:37;;;;;;;1.77;1.67;;;;;;;;;;5056003;28;20032;-29
2023/07/16 07:13:04;;;;;;;1.92;1.75;;;;;;;;;;5055578;28;20021;-29
2023/07/16 07:15:30;;;;;;;1.90;1.55;;;;;;;;;;5056151;28;20332;-30
2023/07/16 07:17:56;;;;;;;1.80;1.70;;;;;;;;;;5055540;28;20048;-31
2023/07/16 07:20:22;;;;;;;3.85;1.90;;;;;;;;;;5055570;28;20029;-29
2023/07/16 07:22:48;;;;;;;2.05;1.95;;;;;;;;;;5055709;28;20364;-28
2023/07/16 07:25:14;;;;;;;2.28;2.08;;;;;;;;;;5037902;28;20055;-30
2023/07/16 07:27:40;;;;;;;2.35;2.15;;;;;;;;;;5055347;28;20091;-31
2023/07/16 07:30:07;;;;;;;1.80;1.67;;;;;;;;;;5055362;28;20021;-30
2023/07/16 07:32:33;;;;;;;2.45;1.75;;;;;;;;;;5055430;28;20029;-30
2023/07/16 07:34:59;;;;;;;2.72;2.53;;;;;;;;;;5055234;28;20053;-30
2023/07/16 07:37:25;;;;;;;1.70;1.50;;;;;;;;;;5055481;28;20099;-30
2023/07/16 07:39:54;;;;;;;2.58;2.38;;;;;;;;;;5055202;28;20417;-29
2023/07/16 07:42:21;;;;;;;1.85;1.67;;;;;;;;;;5055076;28;20033;-31
2023/07/16 07:44:47;;;;;;;1.92;1.83;;;;;;;;;;5055083;28;20024;-31
2023/07/16 07:47:13;;;;;;;1.80;1.67;;;;;;;;;;5055608;28;20029;-28
2023/07/16 07:49:39;;;;;;;2.22;2.08;;;;;;;;;;5055264;28;20024;-32
2023/07/16 07:52:05;;;;;;;2.65;2.20;;;;;;;;;;5055172;28;20021;-30
2023/07/16 07:54:33;;;;;;;2.42;1.80;;;;;;;;;;5054973;28;20457;-28
2023/07/16 07:57:03;;;;;;;2.00;1.90;;;;;;;;;;5055132;28;20037;-29
2023/07/16 07:59:29;;;;;;;2.08;1.98;;;;;;;;;;5055150;28;20032;-29
2023/07/16 08:01:55;;;;;;;1.80;1.70;;;;;;;;;;5055562;28;20130;-30
2023/07/16 08:04:23;;;;;;;1.73;1.63;;;;;;;;;;5054809;28;20491;-28
2023/07/16 08:06:49;;;;;;;1.83;1.73;;;;;;;;;;5054922;28;20037;-29
2023/07/16 08:09:15;;;;;;;2.00;1.90;;;;;;;;;;5054678;28;20029;-25
2023/07/16 08:11:41;;;;;;;1.65;1.55;;;;;;;;;;5054682;28;20039;-31
2023/07/16 08:14:07;;;;;;;1.83;1.73;;;;;;;;;;5036413;28;20051;-27
2023/07/16 08:16:34;;;;;;;3.15;1.98;;;;;;;;;;5054876;28;20029;-27
2023/07/16 08:19:00;;;;;;;2.08;1.98;;;;;;;;;;5054615;28;20057;-31
2023/07/16 08:21:26;;;;;;;2.72;2.00;;;;;;;;;;5054563;28;20053;-31
2023/07/16 08:23:52;;;;;;;2.40;2.20;;;;;;;;;;5054449;28;20039;-30
2023/07/16 08:26:18;;;;;;;3.45;2.22;;;;;;;;;;5054680;28;20036;-31
2023/07/16 08:28:45;;;;;;;2.17;2.08;;;;;;;;;;5054755;28;20394;-28
2023/07/16 08:31:12;;;;;;;2.03;1.92;;;;;;;;;;5054710;28;20328;-30
2023/07/16 08:33:38;;;;;;;2.83;2.05;;;;;;;;;;5054368;28;20036;-30
2023/07/16 08:36:05;;;;;;;2.08;1.95;;;;;;;;;;5054441;28;20083;-32
2023/07/16 08:38:31;;;;;;;2.78;2.58;;;;;;;;;;5054970;28;20036;-29
2023/07/16 08:40:57;;;;;;;1.95;1.85;;;;;;;;;;5054644;28;20029;-31
2023/07/16 08:43:24;;;;;;;2.33;2.20;;;;;;;;;;5054280;28;20032;-27
2023/07/16 08:45:50;;;;;;;2.67;2.47;;;;;;;;;;5055012;28;20036;-29
2023/07/16 08:48:19;;;;;;;3.83;2.38;;;;;;;;;;5054338;28;20025;-29
2023/07/16 08:50:49;;;;;;;2.70;2.50;;;;;;;;;;5036701;28;20436;-27
2023/07/16 08:53:18;;;;;;;2.10;2.00;;;;;;;;;;5054229;28;20079;-27
2023/07/16 08:55:45;;;;;;;2.20;2.00;;;;;;;;;;5054506;28;20033;-29
2023/07/16 08:58:14;;;;;;;2.30;2.17;;;;;;;;;;5054264;28;20452;-31
2023/07/16 09:00:44;;;;;;;2.75;2.60;;;;;;;;;;5036681;28;20051;-29
2023/07/16 09:03:16;;;;;;;2.30;2.20;;;;;;;;;;5053972;28;20355;-27
2023/07/16 09:05:42;;;;;;;2.38;2.22;;;;;;;;;;5053949;28;20043;-30
2023/07/16 09:08:09;;;;;;;2.53;2.33;;;;;;;;;;5054146;28;20025;-31
2023/07/16 09:10:35;;;;;;;2.45;2.35;;;;;;;;;;5054677;28;20041;-32
2023/07/16 09:13:01;;;;;;;2.20;2.10;;;;;;;;;;5036753;28;20079;-27
2023/07/16 09:15:28;;;;;;;2.53;2.33;;;;;;;;;;5054071;28;20059;-31
2023/07/16 09:17:55;;;;;;;2.78;2.58;;;;;;;;;;5054003;28;20056;-30
2023/07/16 09:20:23;;;;;;;1.80;1.70;;;;;;;;;;5054049;28;20035;-26
2023/07/16 09:22:50;;;;;;;2.30;2.10;;;;;;;;;;5054202;28;20429;-28
2023/07/16 09:25:17;;;;;;;2.75;2.42;;;;;;;;;;5038511;28;20460;-31
2023/07/16 09:27:43;;;;;;;3.00;2.50;;;;;;;;;;5057652;28;20036;-28
2023/07/16 09:30:15;;;;;;;2.90;2.70;;;;;;;;;;5057651;28;20032;-29
2023/07/16 09:32:41;;;;;;;2.60;2.50;;;;;;;;;;5057525;28;20106;-32
2023/07/16 09:35:11;;;;;;;2.53;2.42;;;;;;;;;;5057848;28;20090;-27
2023/07/16 09:37:38;;;;;;;3.10;2.85;;;;;;;;;;5057544;28;20546;-31
2023/07/16 09:40:09;;;;;;;2.70;2.50;;;;;;;;;;5057691;28;20056;-30
2023/07/16 09:42:39;;;;;;;3.25;2.95;;;;;;;;;;5057362;28;20029;-32
2023/07/16 09:45:09;;;;;;;2.90;2.70;;;;;;;;;;5057368;28;20043;-31
2023/07/16 09:47:35;;;;;;;2.28;2.15;;;;;;;;;;5057236;28;20407;-31
2023/07/16 09:50:04;;;;;;;3.13;2.92;;;;;;;;;;5057561;28;20047;-29
2023/07/16 09:52:32;;;;;;;2.72;2.53;;;;;;;;;;5057622;28;20104;-30
2023/07/16 09:55:01;;;;;;;3.00;2.80;;;;;;;;;;5057130;28;20033;-29
2023/07/16 09:57:29;;;;;;;2.70;2.50;;;;;;;;;;5057465;28;20021;-30
2023/07/16 09:59:57;;;;;;;3.00;2.80;;;;;;;;;;5057133;28;20410;-28
2023/07/16 10:02:23;;;;;;;2.55;2.35;;;;;;;;;;5057178;28;20167;-32
2023/07/16 10:04:49;;;;;;;2.88;2.67;;;;;;;;;;5057133;28;20052;-35
2023/07/16 10:07:26;;;;;;;2.90;2.70;;;;;;;;;;5057178;28;20029;-28
2023/07/16 10:09:52;;;;;;;2.78;2.53;;;;;;;;;;5057174;28;20044;-26
2023/07/16 10:12:19;;;;;;;3.10;2.70;;;;;;;;;;5057230;28;20487;-30
2023/07/16 10:15:04;;;;;;;2.63;2.42;;;;;;;;;;5057314;28;20031;-27
2023/07/16 10:17:31;;;;;;;3.10;2.90;;;;;;;;;;5057112;28;20036;-26
2023/07/16 10:19:58;;;;;;;2.53;2.33;;;;;;;;;;5039167;28;20448;-31
2023/07/16 10:22:35;;;;;;;2.75;2.55;;;;;;;;;;5056844;28;20083;-29
2023/07/16 10:25:02;;;;;;;2.72;2.60;;;;;;;;;;5056581;28;20093;-27
2023/07/16 10:27:32;;;;;;;3.85;2.90;;;;;;;;;;5038954;28;20124;-30
2023/07/16 10:29:59;;;;;;;3.22;3.03;;;;;;;;;;5056837;28;20017;-32
2023/07/16 10:32:29;;;;;;;2.28;2.17;;;;;;;;;;5056373;28;20108;-30
2023/07/16 10:34:55;;;;;;;2.42;2.25;;;;;;;;;;5039048;28;20031;-27
2023/07/16 10:37:21;;;;;;;2.60;2.40;;;;;;;;;;5055733;28;20052;-26
2023/07/16 10:39:52;;;;;;;3.90;2.78;;;;;;;;;;5056413;28;20028;-29
2023/07/16 10:42:19;;;;;;;2.95;2.75;;;;;;;;;;5056769;28;20040;-27
2023/07/16 10:44:45;;;;;;;2.75;2.60;;;;;;;;;;5056285;28;20443;-30
2023/07/16 10:47:21;;;;;;;2.42;2.30;;;;;;;;;;5038624;28;20029;-29
2023/07/16 10:49:47;;;;;;;3.03;2.83;;;;;;;;;;5056405;28;20079;-29
2023/07/16 10:52:13;;;;;;;2.90;2.70;;;;;;;;;;5056069;28;20052;-31
2023/07/16 10:54:40;;;;;;;2.67;2.47;;;;;;;;;;5056354;28;20021;-32
2023/07/16 10:57:07;;;;;;;2.80;2.60;;;;;;;;;;5056047;28;20029;-30
2023/07/16 10:59:33;;;;;;;3.13;2.92;;;;;;;;;;5055994;28;20028;-30
2023/07/16 11:01:59;;;;;;;2.65;2.45;;;;;;;;;;5038307;28;20071;-30
2023/07/16 11:04:26;;;;;;;2.67;2.58;;;;;;;;;;5055606;28;20040;-30
2023/07/16 11:06:52;;;;;;;2.70;2.50;;;;;;;;;;5055990;28;20033;-25
2023/07/16 11:09:18;;;;;;;2.80;2.60;;;;;;;;;;5038141;28;20445;-29
2023/07/16 11:11:45;;;;;;;3.03;2.78;;;;;;;;;;5055742;28;20025;-26
2023/07/16 11:14:11;;;;;;;2.63;2.40;;;;;;;;;;5055857;28;20452;-31
2023/07/16 11:16:38;;;;;;;2.65;2.55;;;;;;;;;;5055640;28;20037;-28
2023/07/16 11:19:07;;;;;;;2.38;2.28;;;;;;;;;;5055871;28;20031;-30
2023/07/16 11:21:37;;;;;;;2.55;2.38;;;;;;;;;;5055804;28;20112;-27
2023/07/16 11:24:09;;;;;;;2.78;2.58;;;;;;;;;;5055363;28;20039;-29
2023/07/16 11:26:35;;;;;;;2.88;2.67;;;;;;;;;;5055702;28;20406;-29
2023/07/16 11:29:02;;;;;;;3.15;2.95;;;;;;;;;;5055430;28;20032;-28
2023/07/16 11:31:28;;;;;;;3.28;2.97;;;;;;;;;;5055402;28;20082;-28
2023/07/16 11:34:01;;;;;;;2.67;2.47;;;;;;;;;;5055174;28;20032;-29
2023/07/16 11:36:29;;;;;;;3.38;3.13;;;;;;;;;;5055526;28;20029;-31
2023/07/16 11:38:55;;;;;;;3.50;3.13;;;;;;;;;;5037841;28;20410;-27
2023/07/16 11:41:21;;;;;;;3.08;2.88;;;;;;;;;;5055722;28;20056;-30
2023/07/16 11:43:48;;;;;;;2.58;2.38;;;;;;;;;;5055296;28;20021;-30
2023/07/16 11:46:17;;;;;;;2.90;2.70;;;;;;;;;;5054993;28;20028;-27
2023/07/16 11:48:43;;;;;;;3.42;3.13;;;;;;;;;;5037285;28;20021;-28
2023/07/16 11:51:10;;;;;;;3.00;2.80;;;;;;;;;;5055560;28;20098;-27
2023/07/16 11:53:36;;;;;;;2.95;2.75;;;;;;;;;;5055140;28;20083;-30
2023/07/16 11:56:02;;;;;;;3.03;2.83;;;;;;;;;;5054933;28;20051;-30
2023/07/16 11:58:28;;;;;;;2.83;2.72;;;;;;;;;;5055436;28;20093;-27
2023/07/16 12:00:54;;;;;;;2.97;2.78;;;;;;;;;;5055106;28;20088;-29
2023/07/16 12:03:20;;;;;;;3.25;3.05;;;;;;;;;;5054750;28;20036;-28
2023/07/16 12:05:47;;;;;;;2.70;2.50;;;;;;;;;;5054528;28;20053;-28
2023/07/16 12:08:14;;;;;;;3.20;3.00;;;;;;;;;;5055020;28;20372;-29
2023/07/16 12:10:43;;;;;;;3.22;3.03;;;;;;;;;;5054669;28;20021;-30
2023/07/16 12:13:09;;;;;;;3.10;2.83;;;;;;;;;;5054674;28;20021;-29
2023/07/16 12:15:36;;;;;;;2.90;2.70;;;;;;;;;;5054881;28;20025;-30
2023/07/16 12:18:03;;;;;;;2.92;2.72;;;;;;;;;;5055122;28;20037;-32
2023/07/16 12:20:29;;;;;;;3.00;2.80;;;;;;;;;;5054870;28;20043;-31
2023/07/16 12:22:55;;;;;;;3.42;3.13;;;;;;;;;;5054530;28;20025;-30
2023/07/16 12:25:21;;;;;;;3.22;3.03;;;;;;;;;;5054595;28;20025;-30
2023/07/16 12:27:47;;;;;;;2.95;2.75;;;;;;;;;;5054476;28;20021;-26
2023/07/16 12:30:13;;;;;;;2.65;2.55;;;;;;;;;;5054764;28;20025;-28
2023/07/16 12:32:40;;;;;;;3.42;3.13;;;;;;;;;;5054656;28;20032;-30
2023/07/16 12:35:06;;;;;;;3.20;3.00;;;;;;;;;;5054462;28;20359;-26
2023/07/16 12:37:32;;;;;;;3.10;2.90;;;;;;;;;;5054964;28;20043;-30
2023/07/16 12:39:58;;;;;;;3.35;3.15;;;;;;;;;;5036831;28;20035;-27
2023/07/16 12:42:24;;;;;;;3.42;3.13;;;;;;;;;;5054319;28;20025;-30
2023/07/16 12:44:50;;;;;;;3.65;3.40;;;;;;;;;;5054335;28;20483;-26
2023/07/16 12:47:16;;;;;;;3.05;2.85;;;;;;;;;;5054285;28;20025;-28
2023/07/16 12:49:43;;;;;;;3.03;2.83;;;;;;;;;;5054593;28;20020;-30
2023/07/16 12:52:09;;;;;;;2.75;2.58;;;;;;;;;;5054231;28;20181;-27
2023/07/16 12:54:35;;;;;;;3.25;2.92;;;;;;;;;;5054603;28;20021;-31
2023/07/16 12:57:02;;;;;;;3.13;2.92;;;;;;;;;;5054211;28;20082;-29
2023/07/16 12:59:29;;;;;;;3.58;3.28;;;;;;;;;;5055476;28;20036;-32
2023/07/16 13:01:55;;;;;;;3.05;2.85;;;;;;;;;;5058355;28;20048;-30
2023/07/16 13:04:21;;;;;;;3.58;3.28;;;;;;;;;;5058142;28;20116;-27
2023/07/16 13:06:48;;;;;;;4.75;3.15;;;;;;;;;;5058557;28;20037;-28
2023/07/16 13:09:15;;;;;;;3.80;3.45;;;;;;;;;;5058093;28;20083;-31
2023/07/16 13:11:42;;;;;;;3.45;3.25;;;;;;;;;;5058281;28;20032;-29
2023/07/16 13:14:08;;;;;;;3.13;2.92;;;;;;;;;;5057908;28;20036;-29
2023/07/16 13:16:34;;;;;;;3.08;2.88;;;;;;;;;;5040366;28;20091;-29
2023/07/16 13:19:00;;;;;;;2.95;2.75;;;;;;;;;;5058133;28;20033;-29
2023/07/16 13:21:26;;;;;;;2.90;2.60;;;;;;;;;;5058104;28;20033;-29
2023/07/16 13:23:52;;;;;;;3.90;3.55;;;;;;;;;;5058012;28;20372;-27
2023/07/16 13:26:18;;;;;;;2.88;2.67;;;;;;;;;;5057679;28;20025;-29
2023/07/16 13:28:44;;;;;;;3.03;2.85;;;;;;;;;;5057690;28;20124;-29
2023/07/16 13:31:10;;;;;;;3.00;2.80;;;;;;;;;;5040111;28;20103;-29
2023/07/16 13:33:37;;;;;;;3.60;3.30;;;;;;;;;;5057829;28;20451;-26
2023/07/16 13:36:04;;;;;;;3.20;2.90;;;;;;;;;;5057571;28;20521;-31
2023/07/16 13:38:30;;;;;;;2.92;2.72;;;;;;;;;;5058031;28;20021;-30
2023/07/16 13:40:57;;;;;;;2.88;2.67;;;;;;;;;;5057428;28;20017;-27
2023/07/16 13:43:23;;;;;;;3.10;2.90;;;;;;;;;;5057637;28;20440;-32
2023/07/16 13:45:49;;;;;;;3.10;2.90;;;;;;;;;;5057348;28;20017;-29
2023/07/16 13:48:15;;;;;;;3.15;2.95;;;;;;;;;;5057314;28;20029;-29
2023/07/16 13:50:41;;;;;;;2.60;2.40;;;;;;;;;;5057502;28;20031;-32
2023/07/16 13:53:07;;;;;;;2.97;2.78;;;;;;;;;;5039662;28;20021;-30
2023/07/16 13:55:34;;;;;;;3.10;2.90;;;;;;;;;;5057274;28;20032;-30
2023/07/16 13:58:00;;;;;;;3.92;2.90;;;;;;;;;;5057444;28;20070;-26
2023/07/16 14:00:26;;;;;;;3.05;2.80;;;;;;;;;;5057134;28;20341;-32
2023/07/16 14:02:52;;;;;;;2.92;2.72;;;;;;;;;;5057116;28;20506;-27
2023/07/16 14:05:19;;;;;;;2.78;2.55;;;;;;;;;;5056840;28;20049;-31
2023/07/16 14:07:46;;;;;;;3.38;3.17;;;;;;;;;;5056844;28;20033;-29
2023/07/16 14:10:12;;;;;;;2.95;2.75;;;;;;;;;;5056774;28;20048;-28
2023/07/16 14:12:38;;;;;;;5.05;2.67;;;;;;;;;;5055912;28;20013;-30
2023/07/16 14:15:05;;;;;;;4.15;2.92;;;;;;;;;;5056877;28;20024;-28
2023/07/16 14:17:31;;;;;;;3.05;2.75;;;;;;;;;;5056833;28;20033;-29
2023/07/16 14:19:57;;;;;;;3.90;2.85;;;;;;;;;;5056862;28;20103;-26
2023/07/16 14:22:27;;;;;;;3.03;2.83;;;;;;;;;;5056735;28;20025;-32
2023/07/16 14:24:53;;;;;;;2.78;2.58;;;;;;;;;;5056586;28;20025;-29
2023/07/16 14:27:19;;;;;;;3.35;3.05;;;;;;;;;;5056630;28;20356;-30
2023/07/16 14:29:46;;;;;;;2.90;2.70;;;;;;;;;;5056835;28;20049;-28
2023/07/16 14:32:13;;;;;;;3.20;2.90;;;;;;;;;;5056416;28;20082;-32
2023/07/16 14:34:39;;;;;;;3.00;2.72;;;;;;;;;;5056524;28;20028;-29
2023/07/16 14:37:05;;;;;;;3.45;3.15;;;;;;;;;;5056802;28;20036;-30
2023/07/16 14:39:31;;;;;;;3.17;2.97;;;;;;;;;;5056967;28;20025;-31